Terminal Aerodrome Forecast
Issued by NWS

Home | Current Version | Previous Version | Text Only | Print | Product List | Glossary On
Versions: 1 2 3 4 5 6 7 8 9 10 11 12 13 14
000
FTUS42 KTBW 271122
TAFRSW
TAF
KRSW 271122Z 2712/2812 08005KT P6SM SCT100
     FM271400 12008KT P6SM FEW030 SCT100
     FM271800 13008KT P6SM VCTS SCT040CB SCT150
     FM272200 22007KT P6SM VCTS SCT050CB SCT150
     FM280100 VRB05KT P6SM FEW050 SCT250=

USA.gov is the U.S. government's official web portal to all federal, state and local government web resources and services.